<?xml version="1.0" encoding="UTF-8" standalone="no" ?>
<gpx xmlns="http://www.topografix.com/GPX/1/1" creator="MapSource 6.15.5" version="1.1"
xmlns:xsi="http://www.w3.org/2001/XMLSchema-instance"
xsi:schemaLocation="http://www.topografix.com/GPX/1/1 http://www.topografix.com/GPX/1/1/gpx.xsd">

  <trk>
    <trkseg>
      <trkpt lat="48.115410" lon="11.284873">
       <time>2017-05-23T07:50:22Z</time>
       <course>0.0</course>
  <speed>0.3</speed>
       </trkpt>
      <trkpt lat="48.115410" lon="11.284873">
       <time>2017-05-23T07:50:22Z</time>
       <course>0.0</course>
  <speed>0.3</speed>
       </trkpt>
      <trkpt lat="48.115398" lon="11.284865">
       <time>2017-05-23T07:50:24Z</time>
       <course>0.0</course>
  <speed>0.2</speed>
       </trkpt>
      <trkpt lat="48.115390" lon="11.284897">
       <time>2017-05-23T07:50:26Z</time>
       <course>0.0</course>
  <speed>0.2</speed>
       </trkpt>
      <trkpt lat="48.115368" lon="11.284843">
       <time>2017-05-23T07:50:28Z</time>
       <course>0.0</course>
  <speed>0.3</speed>
       </trkpt>
      <trkpt lat="48.115355" lon="11.284808">
       <time>2017-05-23T07:50:30Z</time>
       <course>0.0</course>
  <speed>0.3</speed>
       </trkpt>
      <trkpt lat="48.115347" lon="11.284797">
       <time>2017-05-23T07:50:32Z</time>
       <course>0.0</course>
  <speed>0.4</speed>
       </trkpt>
      <trkpt lat="48.115338" lon="11.284793">
       <time>2017-05-23T07:50:34Z</time>
       <course>0.0</course>
  <speed>0.3</speed>
       </trkpt>
      <trkpt lat="48.115328" lon="11.284785">
       <time>2017-05-23T07:50:36Z</time>
       <course>0.0</course>
  <speed>0.3</speed>
       </trkpt>
      <trkpt lat="48.115322" lon="11.284780">
       <time>2017-05-23T07:50:38Z</time>
       <course>0.0</course>
  <speed>0.3</speed>
       </trkpt>
      <trkpt lat="48.115315" lon="11.284773">
       <time>2017-05-23T07:50:40Z</time>
       <course>0.0</course>
  <speed>0.4</speed>
       </trkpt>
      <trkpt lat="48.115315" lon="11.284772">
       <time>2017-05-23T07:50:42Z</time>
       <course>0.0</course>
  <speed>0.4</speed>
       </trkpt>
      <trkpt lat="48.115318" lon="11.284773">
       <time>2017-05-23T07:50:44Z</time>
       <course>0.0</course>
  <speed>0.3</speed>
       </trkpt>
      <trkpt lat="48.115322" lon="11.284763">
       <time>2017-05-23T07:50:46Z</time>
       <course>0.0</course>
  <speed>0.4</speed>
       </trkpt>
      <trkpt lat="48.115328" lon="11.284760">
       <time>2017-05-23T07:50:48Z</time>
       <course>0.0</course>
  <speed>0.2</speed>
       </trkpt>
      <trkpt lat="48.115328" lon="11.284758">
       <time>2017-05-23T07:50:50Z</time>
       <course>0.0</course>
  <speed>0.2</speed>
       </trkpt>
      <trkpt lat="48.115332" lon="11.284755">
       <time>2017-05-23T07:50:52Z</time>
       <course>0.0</course>
  <speed>0.1</speed>
       </trkpt>
      <trkpt lat="48.115345" lon="11.284760">
       <time>2017-05-23T07:50:54Z</time>
       <course>0.0</course>
  <speed>0.1</speed>
       </trkpt>
      <trkpt lat="48.115345" lon="11.284760">
       <time>2017-05-23T07:50:56Z</time>
       <course>0.0</course>
  <speed>0.0</speed>
       </trkpt>
      <trkpt lat="48.115345" lon="11.284760">
       <time>2017-05-23T07:50:58Z</time>
       <course>0.0</course>
  <speed>0.0</speed>
       </trkpt>
      <trkpt lat="48.115345" lon="11.284760">
       <time>2017-05-23T07:51:00Z</time>
       <course>0.0</course>
  <speed>0.0</speed>
       </trkpt>
      <trkpt lat="48.115345" lon="11.284760">
       <time>2017-05-23T07:51:02Z</time>
       <course>0.0</course>
  <speed>0.0</speed>
       </trkpt>
      <trkpt lat="48.115345" lon="11.284760">
       <time>2017-05-23T07:51:04Z</time>
       <course>0.0</course>
  <speed>0.0</speed>
       </trkpt>
      <trkpt lat="48.115345" lon="11.284760">
       <time>2017-05-23T07:51:06Z</time>
       <course>0.0</course>
  <speed>0.0</speed>
       </trkpt>
      <trkpt lat="48.115345" lon="11.284760">
       <time>2017-05-23T07:51:08Z</time>
       <course>0.0</course>
  <speed>0.0</speed>
       </trkpt>
      <trkpt lat="48.115345" lon="11.284760">
       <time>2017-05-23T07:51:10Z</time>
       <course>0.0</course>
  <speed>0.0</speed>
       </trkpt>
      <trkpt lat="48.115345" lon="11.284760">
       <time>2017-05-23T07:51:12Z</time>
       <course>0.0</course>
  <speed>0.0</speed>
       </trkpt>
      <trkpt lat="48.115345" lon="11.284760">
       <time>2017-05-23T07:51:14Z</time>
       <course>0.0</course>
  <speed>0.0</speed>
       </trkpt>
      <trkpt lat="48.115345" lon="11.284760">
       <time>2017-05-23T07:51:16Z</time>
       <course>0.0</course>
  <speed>0.0</speed>
       </trkpt>
      <trkpt lat="48.115345" lon="11.284760">
       <time>2017-05-23T07:51:18Z</time>
       <course>0.0</course>
  <speed>0.0</speed>
       </trkpt>
      <trkpt lat="48.115345" lon="11.284760">
       <time>2017-05-23T07:51:20Z</time>
       <course>0.0</course>
  <speed>0.0</speed>
       </trkpt>
      <trkpt lat="48.115345" lon="11.284760">
       <time>2017-05-23T07:51:22Z</time>
       <course>0.0</course>
  <speed>0.0</speed>
       </trkpt>
      <trkpt lat="48.115345" lon="11.284760">
       <time>2017-05-23T07:51:24Z</time>
       <course>0.0</course>
  <speed>0.0</speed>
       </trkpt>
      <trkpt lat="48.115345" lon="11.284760">
       <time>2017-05-23T07:51:26Z</time>
       <course>0.0</course>
  <speed>0.0</speed>
       </trkpt>
      <trkpt lat="48.115345" lon="11.284760">
       <time>2017-05-23T07:51:28Z</time>
       <course>0.0</course>
  <speed>0.0</speed>
       </trkpt>
      <trkpt lat="48.115345" lon="11.284760">
       <time>2017-05-23T07:51:30Z</time>
       <course>0.0</course>
  <speed>0.0</speed>
       </trkpt>
      <trkpt lat="48.115342" lon="11.284775">
       <time>2017-05-23T07:51:32Z</time>
       <course>0.0</course>
  <speed>0.3</speed>
       </trkpt>
      <trkpt lat="48.115333" lon="11.284793">
       <time>2017-05-23T07:51:34Z</time>
       <course>0.0</course>
  <speed>0.0</speed>
       </trkpt>
      <trkpt lat="48.115328" lon="11.284807">
       <time>2017-05-23T07:51:36Z</time>
       <course>0.0</course>
  <speed>0.0</speed>
       </trkpt>
      <trkpt lat="48.115328" lon="11.284807">
       <time>2017-05-23T07:51:38Z</time>
       <course>0.0</course>
  <speed>0.0</speed>
       </trkpt>
      <trkpt lat="48.115328" lon="11.284807">
       <time>2017-05-23T07:51:40Z</time>
       <course>0.0</course>
  <speed>0.0</speed>
       </trkpt>
      <trkpt lat="48.115328" lon="11.284807">
       <time>2017-05-23T07:51:42Z</time>
       <course>0.0</course>
  <speed>0.0</speed>
       </trkpt>
      <trkpt lat="48.115328" lon="11.284807">
       <time>2017-05-23T07:51:44Z</time>
       <course>0.0</course>
  <speed>0.0</speed>
       </trkpt>
      <trkpt lat="48.115328" lon="11.284807">
       <time>2017-05-23T07:51:46Z</time>
       <course>0.0</course>
  <speed>0.0</speed>
       </trkpt>
      <trkpt lat="48.115328" lon="11.284807">
       <time>2017-05-23T07:51:48Z</time>
       <course>0.0</course>
  <speed>0.0</speed>
       </trkpt>
      <trkpt lat="48.115328" lon="11.284807">
       <time>2017-05-23T07:51:50Z</time>
       <course>0.0</course>
  <speed>0.0</speed>
       </trkpt>
      <trkpt lat="48.115328" lon="11.284807">
       <time>2017-05-23T07:51:52Z</time>
       <course>0.0</course>
  <speed>0.0</speed>
       </trkpt>
      <trkpt lat="48.115328" lon="11.284807">
       <time>2017-05-23T07:51:54Z</time>
       <course>0.0</course>
  <speed>0.0</speed>
       </trkpt>
      <trkpt lat="48.115328" lon="11.284807">
       <time>2017-05-23T07:51:56Z</time>
       <course>0.0</course>
  <speed>0.0</speed>
       </trkpt>
      <trkpt lat="48.115328" lon="11.284807">
       <time>2017-05-23T07:51:58Z</time>
       <course>0.0</course>
  <speed>0.0</speed>
       </trkpt>
      <trkpt lat="48.115328" lon="11.284807">
       <time>2017-05-23T07:52:00Z</time>
       <course>0.0</course>
  <speed>0.0</speed>
       </trkpt>
      <trkpt lat="48.115328" lon="11.284807">
       <time>2017-05-23T07:52:02Z</time>
       <course>0.0</course>
  <speed>0.0</speed>
       </trkpt>
      <trkpt lat="48.115328" lon="11.284807">
       <time>2017-05-23T07:52:04Z</time>
       <course>0.0</course>
  <speed>0.0</speed>
       </trkpt>
      <trkpt lat="48.115328" lon="11.284807">
       <time>2017-05-23T07:52:06Z</time>
       <course>0.0</course>
  <speed>0.0</speed>
       </trkpt>
      <trkpt lat="48.115328" lon="11.284807">
       <time>2017-05-23T07:52:08Z</time>
       <course>0.0</course>
  <speed>0.0</speed>
       </trkpt>
      <trkpt lat="48.115328" lon="11.284807">
       <time>2017-05-23T07:52:10Z</time>
       <course>0.0</course>
  <speed>0.0</speed>
       </trkpt>
      <trkpt lat="48.115328" lon="11.284807">
       <time>2017-05-23T07:52:12Z</time>
       <course>0.0</course>
  <speed>0.0</speed>
       </trkpt>
      <trkpt lat="48.115328" lon="11.284807">
       <time>2017-05-23T07:52:14Z</time>
       <course>0.0</course>
  <speed>0.0</speed>
       </trkpt>
      <trkpt lat="48.115328" lon="11.284807">
       <time>2017-05-23T07:52:16Z</time>
       <course>0.0</course>
  <speed>0.0</speed>
       </trkpt>
      <trkpt lat="48.115328" lon="11.284807">
       <time>2017-05-23T07:52:18Z</time>
       <course>0.0</course>
  <speed>0.0</speed>
       </trkpt>
      <trkpt lat="48.115328" lon="11.284807">
       <time>2017-05-23T07:52:20Z</time>
       <course>0.0</course>
  <speed>0.0</speed>
       </trkpt>
      <trkpt lat="48.115328" lon="11.284807">
       <time>2017-05-23T07:52:22Z</time>
       <course>0.0</course>
  <speed>0.0</speed>
       </trkpt>
      <trkpt lat="48.115328" lon="11.284807">
       <time>2017-05-23T07:52:24Z</time>
       <course>0.0</course>
  <speed>0.0</speed>
       </trkpt>
      <trkpt lat="48.115328" lon="11.284807">
       <time>2017-05-23T07:52:26Z</time>
       <course>0.0</course>
  <speed>0.0</speed>
       </trkpt>
      <trkpt lat="48.115328" lon="11.284807">
       <time>2017-05-23T07:52:28Z</time>
       <course>0.0</course>
  <speed>0.0</speed>
       </trkpt>
      <trkpt lat="48.115328" lon="11.284807">
       <time>2017-05-23T07:52:30Z</time>
       <course>0.0</course>
  <speed>0.0</speed>
       </trkpt>
      <trkpt lat="48.115328" lon="11.284807">
       <time>2017-05-23T07:52:32Z</time>
       <course>0.0</course>
  <speed>0.0</speed>
       </trkpt>
      <trkpt lat="48.115328" lon="11.284807">
       <time>2017-05-23T07:52:34Z</time>
       <course>0.0</course>
  <speed>0.0</speed>
       </trkpt>
      <trkpt lat="48.115328" lon="11.284807">
       <time>2017-05-23T07:52:36Z</time>
       <course>0.0</course>
  <speed>0.0</speed>
       </trkpt>
      <trkpt lat="48.115328" lon="11.284807">
       <time>2017-05-23T07:52:38Z</time>
       <course>0.0</course>
  <speed>0.0</speed>
       </trkpt>
      <trkpt lat="48.115328" lon="11.284807">
       <time>2017-05-23T07:52:40Z</time>
       <course>0.0</course>
  <speed>0.0</speed>
       </trkpt>
      <trkpt lat="48.115328" lon="11.284807">
       <time>2017-05-23T07:52:42Z</time>
       <course>0.0</course>
  <speed>0.0</speed>
       </trkpt>
      <trkpt lat="48.115328" lon="11.284807">
       <time>2017-05-23T07:52:44Z</time>
       <course>0.0</course>
  <speed>0.0</speed>
       </trkpt>
    </trkseg>
 </trk>
</gpx>